createdAt,value
2023-04-18T00:00:56.858Z,56.25
2023-04-18T00:01:56.938Z,56.60
2023-04-18T00:02:57.451Z,56.71
2023-04-18T00:03:57.038Z,57.18
2023-04-18T00:04:56.912Z,57.47
2023-04-18T00:05:56.850Z,57.64
2023-04-18T00:06:56.801Z,57.66
2023-04-18T00:07:56.888Z,57.79
2023-04-18T00:08:56.880Z,57.57
2023-04-18T00:09:56.762Z,57.86
2023-04-18T00:10:56.786Z,58.02
2023-04-18T00:11:56.785Z,58.22
2023-04-18T00:12:56.801Z,57.97
2023-04-18T00:13:56.788Z,57.90
2023-04-18T00:14:56.729Z,58.31
2023-04-18T00:15:56.753Z,58.44
2023-04-18T00:16:56.827Z,58.03
2023-04-18T00:17:56.827Z,57.71
2023-04-18T00:18:56.823Z,57.65
2023-04-18T00:19:56.753Z,57.45
2023-04-18T00:20:56.747Z,57.04
2023-04-18T00:21:56.702Z,56.59
2023-04-18T00:22:56.681Z,56.22
2023-04-18T00:23:56.693Z,56.17
2023-04-18T00:24:57.247Z,56.21
2023-04-18T00:25:56.701Z,56.15
2023-04-18T00:26:56.704Z,56.15
2023-04-18T00:27:56.701Z,55.94
2023-04-18T00:28:56.635Z,55.79
2023-04-18T00:29:56.703Z,55.86
2023-04-18T00:30:56.740Z,55.94
2023-04-18T00:31:56.680Z,55.93
2023-04-18T00:32:56.732Z,56.09
2023-04-18T00:33:57.349Z,56.58
2023-04-18T00:34:56.681Z,56.56
2023-04-18T00:35:56.651Z,56.92
2023-04-18T00:36:56.605Z,57.23
2023-04-18T00:37:56.719Z,57.52
2023-04-18T00:38:56.621Z,57.59
2023-04-18T00:39:56.595Z,57.82
2023-04-18T00:40:56.590Z,58.07
2023-04-18T00:41:56.608Z,58.13
2023-04-18T00:42:56.599Z,58.04
2023-04-18T00:43:56.582Z,58.41
2023-04-18T00:44:56.553Z,58.37
2023-04-18T00:45:56.628Z,58.32
2023-04-18T00:46:57.296Z,58.44
2023-04-18T00:47:56.629Z,58.35
2023-04-18T00:48:56.562Z,58.13
2023-04-18T00:49:56.554Z,57.72
2023-04-18T00:50:56.556Z,57.41
2023-04-18T00:51:56.555Z,57.41
2023-04-18T00:52:56.531Z,58.02
2023-04-18T00:53:56.541Z,58.17
2023-04-18T00:54:56.514Z,58.33
2023-04-18T00:55:56.518Z,58.23
2023-04-18T00:56:56.490Z,58.25
2023-04-18T00:57:56.523Z,58.31
2023-04-18T00:58:56.482Z,58.36
2023-04-18T00:59:56.480Z,58.34
2023-04-18T01:00:56.458Z,58.00
2023-04-18T01:01:57.391Z,58.15
2023-04-18T01:02:56.596Z,57.94
2023-04-18T01:03:57.532Z,57.70
2023-04-18T01:04:56.475Z,56.99
2023-04-18T01:05:56.463Z,56.65
2023-04-18T01:06:56.437Z,56.46
2023-04-18T01:07:57.355Z,56.33
2023-04-18T01:08:56.419Z,55.76
2023-04-18T01:09:56.425Z,55.38
2023-04-18T01:10:56.426Z,55.07
2023-04-18T01:11:56.542Z,54.99
2023-04-18T01:12:56.442Z,54.93
2023-04-18T01:13:56.452Z,55.02
2023-04-18T01:14:56.456Z,55.23
2023-04-18T01:15:56.433Z,55.76
2023-04-18T01:16:56.345Z,56.05
2023-04-18T01:17:56.439Z,56.18
2023-04-18T01:18:56.350Z,56.65
2023-04-18T01:19:56.360Z,56.84
2023-04-18T01:20:56.394Z,56.97
2023-04-18T01:21:56.362Z,57.08
2023-04-18T01:22:56.370Z,56.77
2023-04-18T01:23:56.321Z,56.58
2023-04-18T01:24:56.338Z,56.89
2023-04-18T01:25:56.336Z,56.73
2023-04-18T01:26:56.360Z,56.78
2023-04-18T01:27:56.339Z,56.76
2023-04-18T01:28:56.318Z,56.69
2023-04-18T01:29:56.346Z,56.74
2023-04-18T01:30:56.364Z,56.47
2023-04-18T01:31:56.832Z,56.52
2023-04-18T01:32:56.369Z,56.68
2023-04-18T01:33:56.281Z,56.92
2023-04-18T01:34:56.272Z,57.16
2023-04-18T01:35:56.281Z,57.09
2023-04-18T01:36:56.237Z,56.81
2023-04-18T01:37:56.278Z,56.51
2023-04-18T01:38:56.215Z,56.27
2023-04-18T01:39:56.215Z,55.69
2023-04-18T01:40:56.226Z,55.35
2023-04-18T01:41:56.209Z,55.13
2023-04-18T01:42:56.254Z,55.03
2023-04-18T01:43:56.225Z,54.83
2023-04-18T01:44:56.140Z,54.66
2023-04-18T01:45:56.166Z,54.44
2023-04-18T01:46:56.267Z,54.17
2023-04-18T01:47:56.297Z,53.84
2023-04-18T01:48:56.190Z,53.37
2023-04-18T01:49:56.173Z,53.22
2023-04-18T01:50:56.191Z,53.03
2023-04-18T01:51:56.200Z,53.16
2023-04-18T01:52:56.123Z,54.08
2023-04-18T01:53:56.125Z,54.56
2023-04-18T01:54:56.132Z,54.99
2023-04-18T01:55:56.158Z,55.23
2023-04-18T01:56:56.131Z,55.98
2023-04-18T01:57:56.142Z,56.23
2023-04-18T01:58:56.138Z,56.23
2023-04-18T01:59:56.123Z,56.33
2023-04-18T02:00:56.093Z,56.54
2023-04-18T02:01:56.217Z,56.56
2023-04-18T02:02:56.247Z,56.67
2023-04-18T02:03:56.301Z,56.69
2023-04-18T02:04:56.074Z,56.69
2023-04-18T02:05:56.083Z,56.62
2023-04-18T02:06:56.092Z,56.50
2023-04-18T02:07:56.093Z,56.59
2023-04-18T02:08:56.038Z,56.78
2023-04-18T02:09:56.023Z,56.68
2023-04-18T02:10:56.047Z,56.68
2023-04-18T02:11:56.029Z,56.59
2023-04-18T02:12:56.052Z,56.40
2023-04-18T02:13:56.037Z,56.19
2023-04-18T02:14:56.887Z,55.99
2023-04-18T02:15:55.952Z,55.55
2023-04-18T02:16:56.980Z,55.17
2023-04-18T02:17:56.087Z,54.89
2023-04-18T02:18:55.962Z,54.65
2023-04-18T02:19:55.976Z,54.71
2023-04-18T02:20:55.981Z,54.86
2023-04-18T02:21:55.965Z,54.72
2023-04-18T02:22:56.013Z,54.34
2023-04-18T02:23:55.915Z,53.89
2023-04-18T02:24:55.928Z,53.61
2023-04-18T02:25:55.927Z,53.34
2023-04-18T02:26:56.013Z,53.40
2023-04-18T02:27:55.998Z,53.12
2023-04-18T02:28:55.922Z,52.61
2023-04-18T02:29:55.940Z,52.38
2023-04-18T02:30:55.948Z,52.03
2023-04-18T02:31:55.988Z,51.72
2023-04-18T02:32:55.968Z,51.73
2023-04-18T02:33:55.879Z,51.66
2023-04-18T02:34:55.882Z,51.52
2023-04-18T02:35:55.912Z,51.45
2023-04-18T02:36:55.889Z,51.55
2023-04-18T02:37:55.887Z,51.43
2023-04-18T02:38:55.819Z,51.04
2023-04-18T02:39:55.889Z,50.80
2023-04-18T02:40:55.841Z,50.48
2023-04-18T02:41:55.822Z,50.32
2023-04-18T02:42:55.864Z,49.96
2023-04-18T02:43:55.819Z,49.87
2023-04-18T02:44:55.841Z,49.84
2023-04-18T02:45:55.901Z,49.80
2023-04-18T02:46:55.835Z,49.70
2023-04-18T02:47:56.644Z,50.07
2023-04-18T02:48:55.783Z,49.98
2023-04-18T02:49:55.800Z,50.10
2023-04-18T02:50:55.773Z,50.13
2023-04-18T02:51:55.778Z,50.18
2023-04-18T02:52:55.806Z,49.77
2023-04-18T02:53:56.352Z,49.70
2023-04-18T02:54:55.782Z,49.88
2023-04-18T02:55:55.729Z,49.79
2023-04-18T02:56:55.731Z,49.66
2023-04-18T02:57:55.761Z,49.48
2023-04-18T02:58:55.725Z,49.59
2023-04-18T02:59:55.737Z,49.63
2023-04-18T03:00:55.779Z,49.49
2023-04-18T03:01:55.703Z,49.30
2023-04-18T03:02:55.785Z,49.03
2023-04-18T03:03:55.816Z,48.59
2023-04-18T03:04:55.706Z,48.42
2023-04-18T03:05:55.738Z,48.56
2023-04-18T03:06:55.690Z,48.47
2023-04-18T03:07:55.693Z,48.55
2023-04-18T03:08:55.654Z,48.92
2023-04-18T03:09:55.658Z,48.98
2023-04-18T03:10:56.274Z,48.97
2023-04-18T03:11:55.683Z,48.85
2023-04-18T03:12:55.632Z,48.94
2023-04-18T03:13:55.600Z,49.04
2023-04-18T03:14:55.656Z,48.93
2023-04-18T03:15:55.630Z,49.03
2023-04-18T03:16:55.746Z,48.91
2023-04-18T03:17:55.590Z,48.66
2023-04-18T03:18:56.431Z,48.65
2023-04-18T03:19:55.579Z,48.83
2023-04-18T03:20:55.593Z,48.53
2023-04-18T03:21:55.638Z,48.41
2023-04-18T03:22:55.570Z,48.36
2023-04-18T03:23:55.520Z,48.51
2023-04-18T03:24:55.581Z,48.49
2023-04-18T03:25:55.537Z,48.71
2023-04-18T03:26:55.561Z,48.79
2023-04-18T03:27:55.526Z,48.91
2023-04-18T03:28:56.445Z,48.74
2023-04-18T03:29:55.538Z,48.85
2023-04-18T03:30:56.466Z,49.56
2023-04-18T03:31:55.534Z,49.47
2023-04-18T03:32:55.555Z,49.18
2023-04-18T03:33:55.479Z,49.09
2023-04-18T03:34:55.466Z,48.88
2023-04-18T03:35:55.568Z,48.71
2023-04-18T03:36:55.475Z,48.49
2023-04-18T03:37:56.278Z,48.51
2023-04-18T03:38:55.453Z,48.80
2023-04-18T03:39:55.417Z,48.85
2023-04-18T03:40:55.432Z,48.76
2023-04-18T03:41:55.425Z,49.16
2023-04-18T03:42:55.625Z,49.34
2023-04-18T03:43:55.408Z,49.49
2023-04-18T03:44:55.390Z,49.25
2023-04-18T03:45:55.407Z,48.97
2023-04-18T03:46:55.454Z,49.38
2023-04-18T03:47:55.406Z,49.37
2023-04-18T03:48:55.920Z,50.12
2023-04-18T03:49:55.398Z,49.60
2023-04-18T03:50:55.370Z,49.79
2023-04-18T03:51:55.373Z,49.57
2023-04-18T03:52:55.393Z,49.38
2023-04-18T03:53:55.313Z,49.26
2023-04-18T03:54:55.346Z,49.14
2023-04-18T03:55:55.303Z,49.07
2023-04-18T03:56:55.328Z,49.20
2023-04-18T03:57:55.342Z,49.24
2023-04-18T03:58:55.322Z,49.17
2023-04-18T03:59:55.251Z,49.36
2023-04-18T04:00:55.310Z,49.27
2023-04-18T04:01:55.331Z,49.41
2023-04-18T04:02:55.564Z,49.35
2023-04-18T04:03:55.309Z,49.26
2023-04-18T04:04:55.325Z,49.83
2023-04-18T04:05:55.288Z,49.56
2023-04-18T04:06:55.249Z,49.38
2023-04-18T04:07:55.275Z,49.93
2023-04-18T04:08:55.229Z,50.04
2023-04-18T04:09:55.930Z,50.33
2023-04-18T04:10:55.228Z,50.42
2023-04-18T04:11:55.239Z,50.95
2023-04-18T04:12:55.242Z,50.78
2023-04-18T04:13:55.338Z,51.01
2023-04-18T04:14:55.284Z,50.89
2023-04-18T04:15:55.373Z,51.08
2023-04-18T04:16:55.274Z,51.10
2023-04-18T04:17:55.235Z,50.86
2023-04-18T04:18:55.257Z,50.57
2023-04-18T04:19:55.192Z,50.69
2023-04-18T04:20:55.179Z,50.92
2023-04-18T04:21:55.175Z,51.69
2023-04-18T04:22:55.193Z,51.33
2023-04-18T04:23:55.124Z,50.98
2023-04-18T04:24:55.093Z,50.96
2023-04-18T04:25:55.116Z,50.36
2023-04-18T04:26:55.088Z,50.18
2023-04-18T04:27:55.116Z,50.27
2023-04-18T04:28:55.123Z,50.81
2023-04-18T04:29:55.101Z,50.63
2023-04-18T04:30:55.031Z,50.71
2023-04-18T04:31:55.074Z,50.66
2023-04-18T04:32:55.121Z,50.87
2023-04-18T04:33:55.103Z,51.16
2023-04-18T04:34:55.037Z,51.05
2023-04-18T04:35:55.070Z,51.02
2023-04-18T04:36:55.065Z,51.15
2023-04-18T04:37:55.073Z,51.34
2023-04-18T04:38:55.172Z,51.65
2023-04-18T04:39:55.076Z,51.39
2023-04-18T04:40:56.079Z,51.30
2023-04-18T04:41:55.177Z,50.61
2023-04-18T04:42:55.093Z,50.26
2023-04-18T04:43:55.907Z,50.60
2023-04-18T04:44:55.046Z,50.68
2023-04-18T04:45:55.036Z,50.62
2023-04-18T04:46:54.955Z,50.25
2023-04-18T04:47:55.025Z,50.39
2023-04-18T04:48:54.967Z,50.68
2023-04-18T04:49:54.960Z,50.77
2023-04-18T04:50:54.980Z,50.85
2023-04-18T04:51:54.960Z,50.46
2023-04-18T04:52:54.957Z,50.01
2023-04-18T04:53:54.901Z,49.80
2023-04-18T04:54:54.927Z,49.87
2023-04-18T04:55:54.997Z,50.16
2023-04-18T04:56:55.497Z,50.14
2023-04-18T04:57:54.917Z,50.42
2023-04-18T04:58:54.918Z,50.49
2023-04-18T04:59:54.898Z,50.49
2023-04-18T05:02:22.671Z,50.73
2023-04-18T05:03:14.994Z,50.72
2023-04-18T05:04:15.181Z,50.69
2023-04-18T05:05:14.806Z,50.73
2023-04-18T05:06:14.815Z,50.85
2023-04-18T05:07:14.801Z,50.92
2023-04-18T05:08:14.811Z,50.81
2023-04-18T05:09:14.801Z,50.81
2023-04-18T05:10:14.775Z,50.99
2023-04-18T05:11:14.773Z,50.80
2023-04-18T05:12:14.777Z,50.72
2023-04-18T05:13:14.740Z,50.70
2023-04-18T05:14:15.044Z,50.53
2023-04-18T05:15:14.716Z,51.09
2023-04-18T05:16:14.782Z,51.35
2023-04-18T05:17:14.768Z,51.32
2023-04-18T05:18:14.798Z,51.33
2023-04-18T05:19:14.788Z,51.05
2023-04-18T05:20:14.840Z,50.60
2023-04-18T05:21:14.904Z,50.26
2023-04-18T05:22:14.962Z,50.45
2023-04-18T05:23:15.084Z,50.38
2023-04-18T05:24:15.251Z,50.30
2023-04-18T05:25:15.081Z,50.55
2023-04-18T05:26:15.104Z,51.11
2023-04-18T05:27:17.217Z,51.54
2023-04-18T05:28:15.175Z,51.91
2023-04-18T05:29:15.414Z,51.95
2023-04-18T05:30:15.115Z,51.86
2023-04-18T05:31:15.267Z,52.19
2023-04-18T05:32:15.109Z,51.88
2023-04-18T05:33:15.547Z,51.67
2023-04-18T05:34:15.476Z,52.12
2023-04-18T05:35:15.245Z,52.33
2023-04-18T05:36:15.053Z,52.22
2023-04-18T05:37:15.079Z,51.73
2023-04-18T05:38:15.612Z,51.25
2023-04-18T05:39:15.136Z,51.02
2023-04-18T05:40:16.106Z,50.73
2023-04-18T05:41:15.042Z,50.52
2023-04-18T05:42:15.098Z,49.92
2023-04-18T05:43:15.215Z,49.89
2023-04-18T05:44:15.100Z,50.01
2023-04-18T05:45:15.141Z,49.89
2023-04-18T05:47:41.674Z,50.55
2023-04-18T05:48:34.747Z,50.66
2023-04-18T05:49:34.686Z,50.82
2023-04-18T05:50:34.765Z,50.18
2023-04-18T05:51:34.593Z,49.78
2023-04-18T05:52:34.561Z,49.77
2023-04-18T05:53:34.725Z,49.87
2023-04-18T05:54:34.646Z,49.80
2023-04-18T05:55:34.565Z,49.73
2023-04-18T05:56:34.559Z,50.12
2023-04-18T05:57:34.542Z,50.42
2023-04-18T05:58:34.535Z,49.73
2023-04-18T05:59:34.508Z,49.73
2023-04-18T06:00:34.513Z,49.62
2023-04-18T06:01:34.809Z,49.71
2023-04-18T06:02:35.236Z,49.48
2023-04-18T06:03:34.628Z,49.08
2023-04-18T06:04:34.640Z,49.09
2023-04-18T06:05:34.575Z,49.17
2023-04-18T06:06:34.430Z,49.06
2023-04-18T06:07:34.458Z,49.46
2023-04-18T06:08:34.463Z,49.05
2023-04-18T06:09:34.450Z,49.12
2023-04-18T06:10:34.464Z,49.07
2023-04-18T06:11:34.425Z,49.13
2023-04-18T06:12:34.438Z,48.95
2023-04-18T06:13:34.726Z,48.91
2023-04-18T06:14:34.409Z,49.10
2023-04-18T06:15:34.404Z,48.92
2023-04-18T06:16:34.520Z,49.13
2023-04-18T06:17:34.429Z,48.91
2023-04-18T06:18:34.555Z,48.66
2023-04-18T06:19:34.390Z,48.78
2023-04-18T06:20:34.627Z,49.27
2023-04-18T06:21:34.575Z,48.95
2023-04-18T06:22:34.622Z,49.15
2023-04-18T06:23:34.728Z,49.19
2023-04-18T06:24:34.762Z,49.00
2023-04-18T06:25:34.499Z,48.76
2023-04-18T06:26:34.452Z,48.96
2023-04-18T06:27:34.992Z,48.40
2023-04-18T06:28:34.703Z,48.24
2023-04-18T06:29:36.241Z,48.14
2023-04-18T06:30:34.499Z,48.23
2023-04-18T06:31:34.541Z,48.29
2023-04-18T06:32:34.625Z,48.30
2023-04-18T06:33:35.658Z,48.54
2023-04-18T06:34:34.856Z,48.54
2023-04-18T06:35:34.515Z,48.50
2023-04-18T06:36:35.265Z,48.52
2023-04-18T06:37:34.533Z,48.19
2023-04-18T06:38:34.538Z,48.01
2023-04-18T06:39:34.726Z,47.97
2023-04-18T06:40:34.453Z,47.82
2023-04-18T06:41:34.458Z,47.54
2023-04-18T06:42:34.514Z,47.49
2023-04-18T06:43:34.482Z,47.65
2023-04-18T06:44:34.752Z,48.01
2023-04-18T06:45:34.449Z,48.13
2023-04-18T06:46:34.416Z,48.19
2023-04-18T06:47:42.150Z,48.72
2023-04-18T06:48:35.080Z,48.57
2023-04-18T06:49:34.702Z,48.37
2023-04-18T06:50:34.362Z,48.32
2023-04-18T06:51:34.361Z,48.47
2023-04-18T06:52:35.091Z,48.98
2023-04-18T06:53:35.098Z,48.75
2023-04-18T06:54:34.693Z,48.84
2023-04-18T06:55:34.696Z,49.10
2023-04-18T06:56:36.370Z,48.98
2023-04-18T06:57:34.387Z,48.63
2023-04-18T06:58:34.368Z,49.18
2023-04-18T06:59:36.112Z,48.89
2023-04-18T07:00:34.468Z,48.67
2023-04-18T07:01:34.473Z,48.55
2023-04-18T07:02:34.511Z,48.49
2023-04-18T07:03:34.629Z,48.43
2023-04-18T07:04:34.554Z,48.40
2023-04-18T07:05:34.839Z,48.38
2023-04-18T07:06:34.852Z,48.42
2023-04-18T07:07:34.529Z,48.94
2023-04-18T07:08:34.567Z,49.22
2023-04-18T07:09:34.580Z,49.43
2023-04-18T07:10:34.585Z,49.65
2023-04-18T07:11:34.591Z,50.34
2023-04-18T07:12:34.698Z,50.91
2023-04-18T07:13:34.609Z,50.83
2023-04-18T07:14:34.763Z,50.48
2023-04-18T07:15:34.821Z,50.60
2023-04-18T07:16:34.751Z,50.44
2023-04-18T07:17:35.097Z,49.97
2023-04-18T07:18:38.338Z,49.65
2023-04-18T07:19:34.640Z,49.51
2023-04-18T07:20:34.582Z,49.15
2023-04-18T07:21:34.650Z,48.89
2023-04-18T07:22:34.631Z,49.12
2023-04-18T07:23:34.615Z,48.91
2023-04-18T07:24:34.571Z,49.07
2023-04-18T07:25:34.624Z,49.40
2023-04-18T07:26:34.594Z,49.33
2023-04-18T07:27:34.557Z,49.00
2023-04-18T07:28:34.909Z,48.84
2023-04-18T07:29:34.749Z,48.80
2023-04-18T07:30:34.511Z,48.70
2023-04-18T07:31:34.635Z,48.46
2023-04-18T07:32:34.579Z,48.49
2023-04-18T07:33:34.607Z,48.73
2023-04-18T07:34:34.725Z,48.21
2023-04-18T07:35:34.673Z,47.90
2023-04-18T07:36:34.532Z,47.50
2023-04-18T07:37:34.548Z,48.22
2023-04-18T07:38:34.514Z,48.78
2023-04-18T07:39:34.816Z,48.95
2023-04-18T07:40:34.466Z,48.75
2023-04-18T07:41:34.457Z,48.85
2023-04-18T07:42:34.570Z,48.87
2023-04-18T07:43:34.494Z,48.41
2023-04-18T07:44:34.806Z,48.25
2023-04-18T07:45:35.268Z,48.15
2023-04-18T07:46:35.041Z,48.30
2023-04-18T07:47:34.851Z,47.95
2023-04-18T07:48:35.679Z,47.82
2023-04-18T07:49:35.464Z,47.85
2023-04-18T07:50:35.202Z,47.36
2023-04-18T07:51:34.795Z,47.30
2023-04-18T07:52:36.819Z,48.12
2023-04-18T07:53:35.936Z,47.93
2023-04-18T07:54:35.892Z,47.95
2023-04-18T07:55:35.965Z,48.02
2023-04-18T07:56:34.885Z,48.41
2023-04-18T07:57:35.562Z,48.44
2023-04-18T07:58:34.929Z,47.99
2023-04-18T07:59:35.221Z,47.44
2023-04-18T08:00:35.237Z,47.35
2023-04-18T08:01:35.050Z,46.95
2023-04-18T08:02:35.366Z,47.27
2023-04-18T08:03:35.171Z,47.08
2023-04-18T08:04:35.293Z,46.73
2023-04-18T08:05:35.211Z,46.44
2023-04-18T08:06:35.114Z,46.05
2023-04-18T08:07:35.271Z,45.75
2023-04-18T08:08:35.126Z,45.80
2023-04-18T08:09:35.784Z,45.82
2023-04-18T08:10:35.226Z,45.66
2023-04-18T08:11:36.227Z,45.65
2023-04-18T08:12:35.312Z,45.43
2023-04-18T08:13:35.369Z,45.23
2023-04-18T08:14:35.891Z,45.22
2023-04-18T08:15:35.437Z,44.72
2023-04-18T08:16:35.492Z,44.32
2023-04-18T08:17:35.526Z,43.88
2023-04-18T08:18:36.146Z,43.46
2023-04-18T08:19:35.656Z,43.64
2023-04-18T08:20:35.767Z,43.79
2023-04-18T08:21:35.769Z,43.85
2023-04-18T08:22:39.310Z,43.24
2023-04-18T08:23:35.913Z,42.91
2023-04-18T08:24:35.749Z,42.62
2023-04-18T08:25:35.768Z,42.11
2023-04-18T08:26:35.871Z,42.08
2023-04-18T08:27:35.718Z,42.57
2023-04-18T08:28:35.753Z,42.42
2023-04-18T08:29:35.752Z,42.25
2023-04-18T08:30:35.762Z,42.84
2023-04-18T08:31:35.730Z,43.13
2023-04-18T08:32:35.767Z,43.12
2023-04-18T08:33:35.761Z,42.44
2023-04-18T08:34:35.773Z,42.25
2023-04-18T08:35:35.710Z,41.99
2023-04-18T08:36:35.704Z,41.51
2023-04-18T08:37:35.635Z,42.59
2023-04-18T08:38:35.685Z,42.41
2023-04-18T08:39:35.746Z,42.43
2023-04-18T08:40:35.688Z,41.85
2023-04-18T08:41:35.676Z,41.60
2023-04-18T08:42:35.618Z,41.49
2023-04-18T08:43:35.717Z,41.45
2023-04-18T08:44:35.800Z,41.68
2023-04-18T08:45:35.708Z,42.08
2023-04-18T08:46:35.651Z,41.60
2023-04-18T08:47:35.662Z,40.87
2023-04-18T08:48:35.664Z,40.62
2023-04-18T08:49:35.823Z,40.83
2023-04-18T08:50:35.622Z,41.71
2023-04-18T08:51:35.624Z,41.51
2023-04-18T08:52:35.688Z,41.28
2023-04-18T08:53:35.587Z,40.39
2023-04-18T08:54:35.752Z,39.95
2023-04-18T08:55:35.554Z,39.86
2023-04-18T08:56:35.564Z,40.17
2023-04-18T08:57:35.601Z,40.68
2023-04-18T08:58:35.640Z,40.68
2023-04-18T08:59:35.885Z,41.52
2023-04-18T09:00:35.784Z,41.69
2023-04-18T09:01:35.711Z,41.62
2023-04-18T09:02:35.734Z,41.46
2023-04-18T09:03:35.828Z,41.18
2023-04-18T09:04:35.976Z,41.61
2023-04-18T09:05:35.968Z,42.12
2023-04-18T09:06:35.915Z,41.70
2023-04-18T09:07:36.221Z,41.63
2023-04-18T09:08:36.068Z,41.69
2023-04-18T09:09:36.328Z,40.91
2023-04-18T09:10:36.062Z,40.85
2023-04-18T09:11:36.252Z,41.27
2023-04-18T09:12:36.227Z,41.30
2023-04-18T09:13:37.148Z,41.49
2023-04-18T09:14:36.800Z,41.06
2023-04-18T09:15:36.332Z,40.62
2023-04-18T09:16:36.369Z,40.69
2023-04-18T09:17:36.423Z,40.11
2023-04-18T09:18:36.391Z,40.05
2023-04-18T09:19:36.726Z,39.89
2023-04-18T09:20:36.894Z,39.76
2023-04-18T09:21:37.144Z,39.83
2023-04-18T09:22:37.944Z,39.75
2023-04-18T09:23:36.550Z,39.30
2023-04-18T09:24:36.544Z,39.32
2023-04-18T09:25:37.953Z,39.17
2023-04-18T09:26:37.372Z,38.95
2023-04-18T09:27:36.611Z,38.93
2023-04-18T09:28:37.497Z,38.91
2023-04-18T09:29:37.170Z,38.83
2023-04-18T09:30:36.590Z,39.11
2023-04-18T09:31:36.605Z,38.86
2023-04-18T09:32:36.553Z,38.78
2023-04-18T09:33:36.463Z,39.04
2023-04-18T09:34:36.531Z,38.97
2023-04-18T09:35:38.241Z,38.08
2023-04-18T09:36:36.489Z,37.63
2023-04-18T09:37:36.532Z,37.66
2023-04-18T09:38:36.352Z,37.94
2023-04-18T09:39:36.415Z,37.53
2023-04-18T09:40:36.860Z,38.34
2023-04-18T09:41:36.378Z,38.87
2023-04-18T09:42:36.392Z,38.95
2023-04-18T09:43:36.398Z,38.69
2023-04-18T09:44:36.903Z,39.00
2023-04-18T09:45:36.838Z,38.50
2023-04-18T09:46:36.498Z,38.65
2023-04-18T09:47:36.593Z,38.58
2023-04-18T09:48:36.446Z,38.41
2023-04-18T09:49:36.352Z,37.91
2023-04-18T09:50:36.421Z,38.09
2023-04-18T09:51:36.322Z,38.09
2023-04-18T09:52:36.398Z,38.54
2023-04-18T09:53:37.077Z,38.97
2023-04-18T09:54:36.433Z,38.03
2023-04-18T09:55:37.174Z,38.44
2023-04-18T09:56:36.502Z,38.42
2023-04-18T09:57:36.496Z,38.19
2023-04-18T09:58:36.476Z,38.12
2023-04-18T09:59:36.588Z,38.32
2023-04-18T10:00:36.785Z,38.22
2023-04-18T10:01:36.745Z,37.80
2023-04-18T10:02:36.726Z,37.57
2023-04-18T10:03:36.775Z,37.43
2023-04-18T10:04:36.814Z,37.81
2023-04-18T10:05:36.846Z,39.08
2023-04-18T10:06:36.702Z,39.74
2023-04-18T10:07:36.822Z,40.06
2023-04-18T10:08:36.749Z,39.90
2023-04-18T10:09:44.435Z,39.78
2023-04-18T10:10:38.561Z,39.91
2023-04-18T10:11:36.806Z,39.50
2023-04-18T10:12:37.049Z,39.15
2023-04-18T10:13:36.809Z,38.93
2023-04-18T10:14:36.785Z,38.73
2023-04-18T10:15:37.424Z,38.81
2023-04-18T10:16:36.957Z,38.63
2023-04-18T10:17:37.000Z,39.12
2023-04-18T10:18:37.034Z,39.13
2023-04-18T10:19:36.982Z,39.54
2023-04-18T10:20:37.439Z,39.43
2023-04-18T10:21:37.043Z,39.11
2023-04-18T10:22:36.963Z,38.62
2023-04-18T10:23:37.133Z,38.57
2023-04-18T10:24:37.086Z,38.41
2023-04-18T10:25:37.391Z,38.29
2023-04-18T10:26:37.200Z,37.45
2023-04-18T10:27:37.188Z,37.71
2023-04-18T10:28:38.098Z,38.03
2023-04-18T10:29:37.169Z,37.63
2023-04-18T10:30:37.335Z,37.80
2023-04-18T10:31:38.103Z,37.93
2023-04-18T10:32:37.657Z,37.96
2023-04-18T10:33:41.112Z,38.13
2023-04-18T10:34:37.568Z,38.72
2023-04-18T10:35:38.387Z,37.91
2023-04-18T10:36:37.352Z,37.09
2023-04-18T10:37:37.415Z,36.86
2023-04-18T10:38:37.474Z,36.76
2023-04-18T10:39:37.621Z,36.63
2023-04-18T10:40:38.198Z,36.16
2023-04-18T10:41:37.709Z,35.82
2023-04-18T10:42:37.739Z,35.62
2023-04-18T10:43:37.717Z,35.70
2023-04-18T10:44:37.698Z,35.37
2023-04-18T10:45:37.737Z,35.10
2023-04-18T10:46:38.022Z,35.01
2023-04-18T10:47:37.911Z,34.95
2023-04-18T10:48:38.601Z,34.89
2023-04-18T10:49:37.811Z,34.41
2023-04-18T10:50:37.934Z,34.12
2023-04-18T10:51:37.970Z,34.33
2023-04-18T10:52:37.821Z,34.18
2023-04-18T10:53:38.209Z,34.14
2023-04-18T10:54:38.000Z,34.22
2023-04-18T10:55:37.876Z,34.61
2023-04-18T10:56:38.430Z,34.77
2023-04-18T10:57:37.913Z,34.70
2023-04-18T10:58:47.812Z,34.93
2023-04-18T10:59:37.981Z,34.72
2023-04-18T11:00:38.051Z,34.43
2023-04-18T11:01:38.176Z,34.56
2023-04-18T11:02:38.078Z,35.14
2023-04-18T11:03:38.061Z,35.75
2023-04-18T11:04:38.020Z,35.79
2023-04-18T11:05:37.976Z,35.04
2023-04-18T11:06:38.008Z,34.82
2023-04-18T11:07:37.882Z,34.62
2023-04-18T11:08:37.928Z,34.71
2023-04-18T11:09:37.918Z,34.63
2023-04-18T11:10:37.923Z,34.13
2023-04-18T11:11:38.333Z,34.60
2023-04-18T11:12:37.849Z,34.75
2023-04-18T11:13:37.987Z,34.56
2023-04-18T11:14:37.900Z,33.95
2023-04-18T11:15:37.883Z,33.98
2023-04-18T11:16:38.095Z,33.70
2023-04-18T11:17:37.940Z,33.36
2023-04-18T11:18:37.881Z,33.21
2023-04-18T11:19:37.999Z,33.06
2023-04-18T11:20:37.856Z,32.74
2023-04-18T11:21:37.896Z,33.04
2023-04-18T11:22:37.897Z,32.86
2023-04-18T11:23:37.900Z,33.02
2023-04-18T11:24:37.855Z,32.71
2023-04-18T11:25:37.849Z,32.78
2023-04-18T11:26:38.498Z,32.60
2023-04-18T11:27:37.941Z,33.09
2023-04-18T11:28:38.017Z,32.91
2023-04-18T11:29:38.251Z,33.72
2023-04-18T11:30:38.034Z,33.34
2023-04-18T11:31:38.643Z,33.51
2023-04-18T11:32:39.537Z,33.75
2023-04-18T11:33:38.372Z,34.12
2023-04-18T11:34:38.097Z,34.18
2023-04-18T11:35:38.543Z,34.10
2023-04-18T11:36:38.517Z,33.78
2023-04-18T11:37:38.230Z,33.57
2023-04-18T11:38:38.326Z,33.24
2023-04-18T11:39:38.370Z,32.90
2023-04-18T11:40:38.324Z,32.82
2023-04-18T11:41:38.382Z,32.78
2023-04-18T11:42:38.362Z,32.50
2023-04-18T11:43:38.403Z,32.68
2023-04-18T11:44:38.442Z,32.65
2023-04-18T11:45:38.602Z,32.69
2023-04-18T11:46:38.518Z,32.51
2023-04-18T11:47:38.513Z,31.97
2023-04-18T11:48:38.582Z,31.34
2023-04-18T11:49:38.541Z,30.77
2023-04-18T11:50:38.565Z,30.78
2023-04-18T11:51:38.797Z,30.83
2023-04-18T11:52:38.659Z,30.77
2023-04-18T11:53:39.486Z,30.44
2023-04-18T11:54:38.664Z,30.46
2023-04-18T11:55:38.723Z,30.76
2023-04-18T11:56:38.778Z,31.40
2023-04-18T11:57:38.796Z,31.47
2023-04-18T11:58:38.974Z,31.88
2023-04-18T11:59:38.845Z,32.14
2023-04-18T12:00:38.970Z,31.91
2023-04-18T12:01:39.336Z,31.66
2023-04-18T12:02:39.187Z,31.06
2023-04-18T12:03:39.101Z,30.99
2023-04-18T12:04:39.279Z,30.78
2023-04-18T12:05:39.218Z,30.84
2023-04-18T12:06:39.130Z,30.53
2023-04-18T12:07:39.140Z,30.67
2023-04-18T12:08:39.127Z,30.43
2023-04-18T12:09:39.232Z,29.72
2023-04-18T12:10:39.225Z,30.08
2023-04-18T12:11:39.253Z,29.80
2023-04-18T12:12:39.296Z,30.11
2023-04-18T12:13:39.325Z,29.95
2023-04-18T12:14:39.357Z,29.45
2023-04-18T12:15:39.531Z,29.80
2023-04-18T12:16:39.474Z,29.87
2023-04-18T12:17:39.529Z,30.03
2023-04-18T12:18:39.572Z,30.16
2023-04-18T12:19:39.546Z,29.85
2023-04-18T12:20:39.631Z,29.85
2023-04-18T12:21:39.640Z,30.00
2023-04-18T12:22:39.762Z,30.32
2023-04-18T12:23:39.713Z,29.90
2023-04-18T12:24:39.757Z,30.05
2023-04-18T12:25:39.900Z,30.59
2023-04-18T12:26:39.784Z,29.97
2023-04-18T12:27:39.745Z,29.63
2023-04-18T12:28:39.855Z,29.14
2023-04-18T12:29:39.866Z,29.12
2023-04-18T12:30:39.910Z,29.45
2023-04-18T12:31:39.944Z,29.73
2023-04-18T12:32:40.144Z,30.49
2023-04-18T12:33:40.014Z,30.68
2023-04-18T12:34:40.071Z,31.00
2023-04-18T12:35:40.055Z,30.83
2023-04-18T12:36:40.121Z,30.78
2023-04-18T12:37:40.169Z,31.20
2023-04-18T12:38:40.215Z,31.51
2023-04-18T12:39:40.232Z,31.10
2023-04-18T12:40:40.317Z,31.04
2023-04-18T12:41:40.396Z,31.53
2023-04-18T12:42:40.304Z,31.33
2023-04-18T12:43:40.318Z,31.17
2023-04-18T12:44:40.373Z,30.98
2023-04-18T12:45:40.398Z,30.82
2023-04-18T12:46:40.460Z,30.94
2023-04-18T12:47:40.485Z,31.17
2023-04-18T12:48:40.417Z,31.50
2023-04-18T12:49:40.499Z,31.99
2023-04-18T12:50:40.502Z,31.95
2023-04-18T12:51:40.595Z,31.76
2023-04-18T12:52:40.583Z,31.81
2023-04-18T12:53:40.716Z,31.77
2023-04-18T12:54:40.604Z,31.56
2023-04-18T12:55:40.647Z,32.05